createdAt,value
2019-01-31T00:00:32.061Z,40.90
2019-01-31T00:02:23.599Z,35.83
2019-01-31T00:04:33.774Z,40.30
2019-01-31T00:06:17.223Z,39.50
2019-01-31T00:08:45.604Z,41.40
2019-01-31T00:11:17.377Z,40.38
2019-01-31T00:13:12.254Z,41.15
2019-01-31T00:15:13.753Z,37.50
2019-01-31T00:17:27.693Z,37.98
2019-01-31T00:19:33.278Z,38.42
2019-01-31T00:21:41.731Z,37.83
2019-01-31T00:23:47.014Z,39.30
2019-01-31T00:26:22.540Z,39.58
2019-01-31T00:28:49.321Z,36.45
2019-01-31T00:30:55.003Z,44.67
2019-01-31T00:33:19.992Z,43.35
2019-01-31T00:35:56.095Z,47.05
2019-01-31T00:38:02.275Z,39.67
2019-01-31T00:40:25.598Z,44.13
2019-01-31T00:42:14.754Z,41.70
2019-01-31T00:44:56.340Z,37.05
2019-01-31T00:47:05.850Z,41.02
2019-01-31T00:49:17.759Z,40.10
2019-01-31T00:51:21.410Z,43.48
2019-01-31T00:53:23.172Z,41.13
2019-01-31T00:55:45.499Z,42.25
2019-01-31T00:57:54.822Z,40.33
2019-01-31T01:00:24.580Z,42.15
2019-01-31T01:02:46.151Z,41.85
2019-01-31T01:04:57.840Z,40.95
2019-01-31T01:07:30.314Z,39.33
2019-01-31T01:09:17.178Z,46.42
2019-01-31T01:11:36.713Z,42.55
2019-01-31T01:13:44.149Z,36.80
2019-01-31T01:15:54.398Z,40.90
2019-01-31T01:17:47.857Z,42.50
2019-01-31T01:19:50.005Z,42.53
2019-01-31T01:22:17.064Z,44.10
2019-01-31T01:24:25.593Z,41.55
2019-01-31T01:26:30.978Z,39.90
2019-01-31T01:29:09.274Z,37.40
2019-01-31T01:31:17.493Z,41.08
2019-01-31T01:34:04.067Z,39.63
2019-01-31T01:35:56.824Z,41.08
2019-01-31T01:38:22.050Z,42.08
2019-01-31T01:40:49.305Z,44.65
2019-01-31T01:43:12.431Z,41.13
2019-01-31T01:45:38.002Z,41.58
2019-01-31T01:47:29.571Z,43.90
2019-01-31T01:49:39.507Z,45.05
2019-01-31T01:51:46.195Z,46.18
2019-01-31T01:54:30.610Z,42.85
2019-01-31T01:56:34.749Z,40.45
2019-01-31T01:58:39.701Z,37.83
2019-01-31T02:00:48.055Z,42.17
2019-01-31T02:03:28.788Z,40.38
2019-01-31T02:05:34.098Z,42.70
2019-01-31T02:07:28.957Z,41.40
2019-01-31T02:10:06.375Z,42.33
2019-01-31T02:12:37.729Z,42.27
2019-01-31T02:14:48.962Z,38.83
2019-01-31T02:17:13.109Z,43.10
2019-01-31T02:19:15.021Z,42.20
2019-01-31T02:21:49.105Z,41.15
2019-01-31T02:23:40.770Z,37.38
2019-01-31T02:25:54.722Z,42.93
2019-01-31T02:28:24.940Z,44.55
2019-01-31T02:31:02.793Z,41.73
2019-01-31T02:33:17.090Z,40.67
2019-01-31T02:35:13.516Z,38.90
2019-01-31T02:37:06.514Z,42.20
2019-01-31T02:39:21.945Z,42.45
2019-01-31T02:41:28.877Z,39.48
2019-01-31T02:43:53.739Z,44.85
2019-01-31T02:46:31.577Z,46.40
2019-01-31T02:48:46.557Z,43.58
2019-01-31T02:51:24.061Z,44.55
2019-01-31T02:53:22.566Z,40.67
2019-01-31T02:55:43.662Z,41.68
2019-01-31T02:58:34.627Z,42.90
2019-01-31T03:00:44.273Z,43.13
2019-01-31T03:02:52.998Z,45.52
2019-01-31T03:05:11.225Z,38.83
2019-01-31T03:07:25.715Z,45.48
2019-01-31T03:09:55.287Z,41.33
2019-01-31T03:12:21.452Z,46.30
2019-01-31T03:14:12.981Z,46.05
2019-01-31T03:16:15.133Z,43.83
2019-01-31T03:18:41.113Z,43.00
2019-01-31T03:21:07.926Z,42.35
2019-01-31T03:23:48.865Z,45.08
2019-01-31T03:26:01.787Z,44.40
2019-01-31T03:28:19.513Z,45.50
2019-01-31T03:31:04.468Z,44.33
2019-01-31T03:33:22.519Z,44.30
2019-01-31T03:35:42.983Z,44.73
2019-01-31T03:38:04.887Z,43.63
2019-01-31T03:40:27.662Z,45.65
2019-01-31T03:42:19.321Z,48.45
2019-01-31T03:44:42.417Z,44.58
2019-01-31T03:47:04.755Z,45.00
2019-01-31T03:49:36.828Z,46.33
2019-01-31T03:52:04.665Z,48.10
2019-01-31T03:54:25.846Z,44.08
2019-01-31T03:56:39.972Z,51.63
2019-01-31T03:58:49.848Z,42.78
2019-01-31T04:01:09.290Z,49.67
2019-01-31T04:03:23.134Z,43.15
2019-01-31T04:05:20.572Z,49.65
2019-01-31T04:06:55.600Z,49.08
2019-01-31T04:08:30.411Z,42.88
2019-01-31T04:10:18.415Z,45.95
2019-01-31T04:11:43.254Z,45.75
2019-01-31T04:13:18.281Z,49.30
2019-01-31T04:14:53.321Z,49.40
2019-01-31T04:16:28.218Z,50.17
2019-01-31T04:18:03.352Z,46.85
2019-01-31T04:19:40.609Z,47.27
2019-01-31T04:21:15.970Z,49.05
2019-01-31T04:22:50.784Z,48.83
2019-01-31T04:24:26.038Z,49.85
2019-01-31T04:26:00.923Z,49.42
2019-01-31T04:27:35.940Z,51.75
2019-01-31T04:29:10.754Z,49.10
2019-01-31T04:30:45.521Z,49.35
2019-01-31T04:32:20.327Z,47.70
2019-01-31T04:33:55.369Z,45.52
2019-01-31T04:35:30.583Z,47.15
2019-01-31T04:37:05.877Z,51.98
2019-01-31T04:38:40.650Z,47.98
2019-01-31T04:40:15.461Z,45.60
2019-01-31T04:41:50.252Z,45.00
2019-01-31T04:43:25.040Z,44.60
2019-01-31T04:45:00.197Z,48.58
2019-01-31T04:46:35.352Z,51.55
2019-01-31T04:48:10.524Z,48.45
2019-01-31T04:49:45.300Z,47.50
2019-01-31T04:51:20.343Z,45.73
2019-01-31T04:52:55.351Z,46.95
2019-01-31T04:54:30.304Z,50.75
2019-01-31T04:56:05.265Z,49.42
2019-01-31T04:57:40.276Z,46.92
2019-01-31T04:59:15.338Z,46.88
2019-01-31T05:00:50.379Z,45.40
2019-01-31T05:02:25.422Z,51.18
2019-01-31T05:04:00.350Z,49.03
2019-01-31T05:05:35.415Z,50.43
2019-01-31T05:07:10.494Z,44.55
2019-01-31T05:08:45.286Z,49.80
2019-01-31T05:10:20.343Z,46.77
2019-01-31T05:11:55.151Z,46.20
2019-01-31T05:13:30.185Z,46.75
2019-01-31T05:15:06.305Z,50.12
2019-01-31T05:16:41.358Z,48.40
2019-01-31T05:18:16.420Z,49.77
2019-01-31T05:19:51.187Z,50.20
2019-01-31T05:21:25.982Z,52.80
2019-01-31T05:23:00.740Z,46.85
2019-01-31T05:24:35.513Z,51.08
2019-01-31T05:26:10.545Z,54.40
2019-01-31T05:27:45.330Z,48.40
2019-01-31T05:29:20.100Z,51.25
2019-01-31T05:30:55.123Z,49.05
2019-01-31T05:32:29.922Z,48.75
2019-01-31T05:34:05.107Z,49.03
2019-01-31T05:35:39.897Z,51.75
2019-01-31T05:37:14.680Z,49.77
2019-01-31T05:38:49.467Z,48.48
2019-01-31T05:40:24.334Z,52.20
2019-01-31T05:41:59.105Z,56.92
2019-01-31T05:43:33.916Z,47.95
2019-01-31T05:45:12.477Z,50.83
2019-01-31T05:46:47.275Z,51.08
2019-01-31T05:48:22.406Z,49.48
2019-01-31T05:49:57.807Z,54.65
2019-01-31T05:51:33.151Z,52.53
2019-01-31T05:53:07.991Z,49.38
2019-01-31T05:54:42.868Z,53.08
2019-01-31T05:56:18.033Z,54.88
2019-01-31T05:57:52.792Z,49.18
2019-01-31T05:59:27.574Z,47.98
2019-01-31T06:01:02.390Z,51.75
2019-01-31T06:02:37.184Z,48.35
2019-01-31T06:04:12.442Z,53.80
2019-01-31T06:05:47.212Z,50.28
2019-01-31T06:07:22.030Z,52.70
2019-01-31T06:08:57.122Z,51.58
2019-01-31T06:10:33.586Z,57.20
2019-01-31T06:12:08.901Z,50.43
2019-01-31T06:13:43.764Z,53.75
2019-01-31T06:15:19.054Z,51.85
2019-01-31T06:16:53.968Z,50.30
2019-01-31T06:18:28.968Z,49.77
2019-01-31T06:20:04.256Z,53.13
2019-01-31T06:21:39.147Z,48.52
2019-01-31T06:23:13.924Z,47.27
2019-01-31T06:24:49.150Z,49.50
2019-01-31T06:26:23.913Z,51.70
2019-01-31T06:27:58.985Z,49.42
2019-01-31T06:29:33.766Z,48.60
2019-01-31T06:31:08.648Z,47.93
2019-01-31T06:32:43.695Z,47.85
2019-01-31T06:34:18.590Z,50.75
2019-01-31T06:35:53.386Z,49.33
2019-01-31T06:37:28.182Z,48.23
2019-01-31T06:39:02.958Z,52.35
2019-01-31T06:40:37.754Z,47.83
2019-01-31T06:42:12.548Z,52.65
2019-01-31T06:43:47.348Z,53.20
2019-01-31T06:45:23.171Z,52.15
2019-01-31T06:46:57.945Z,49.50
2019-01-31T06:48:34.122Z,53.80
2019-01-31T06:50:09.369Z,58.17
2019-01-31T06:51:44.154Z,53.30
2019-01-31T06:53:18.600Z,54.93
2019-01-31T06:54:53.081Z,52.98
2019-01-31T06:56:28.075Z,55.73
2019-01-31T06:58:02.853Z,55.00
2019-01-31T06:59:37.870Z,50.70
2019-01-31T07:01:12.945Z,51.48
2019-01-31T07:02:47.895Z,53.05
2019-01-31T07:04:22.954Z,56.23
2019-01-31T07:05:58.006Z,58.20
2019-01-31T07:07:33.039Z,53.35
2019-01-31T07:09:11.637Z,55.00
2019-01-31T07:10:46.675Z,57.15
2019-01-31T07:12:21.097Z,55.67
2019-01-31T07:13:55.982Z,56.60
2019-01-31T07:15:30.915Z,55.33
2019-01-31T07:17:05.446Z,54.20
2019-01-31T07:18:39.849Z,56.02
2019-01-31T07:20:15.690Z,59.75
2019-01-31T07:21:50.089Z,49.73
2019-01-31T07:23:24.447Z,56.73
2019-01-31T07:24:58.841Z,56.60
2019-01-31T07:26:33.537Z,51.53
2019-01-31T07:28:07.901Z,56.83
2019-01-31T07:29:42.890Z,54.50
2019-01-31T07:31:17.695Z,55.73
2019-01-31T07:32:52.378Z,53.00
2019-01-31T07:34:27.369Z,55.48
2019-01-31T07:36:02.409Z,57.10
2019-01-31T07:37:37.493Z,51.83
2019-01-31T07:39:12.344Z,54.63
2019-01-31T07:40:47.138Z,55.88
2019-01-31T07:42:22.207Z,53.38
2019-01-31T07:43:57.057Z,57.85
2019-01-31T07:45:32.714Z,55.60
2019-01-31T07:47:07.640Z,56.10
2019-01-31T07:48:42.710Z,53.63
2019-01-31T07:50:17.957Z,54.93
2019-01-31T07:51:53.150Z,51.60
2019-01-31T07:53:27.937Z,52.62
2019-01-31T07:55:02.977Z,57.55
2019-01-31T07:56:37.787Z,55.55
2019-01-31T07:58:12.810Z,60.43
2019-01-31T07:59:48.078Z,54.53
2019-01-31T08:01:22.868Z,55.15
2019-01-31T08:02:57.809Z,53.95
2019-01-31T08:04:32.855Z,52.50
2019-01-31T08:06:07.642Z,51.92
2019-01-31T08:07:42.441Z,50.12
2019-01-31T08:09:17.148Z,51.58
2019-01-31T08:10:51.546Z,49.42
2019-01-31T08:12:26.485Z,48.58
2019-01-31T08:14:00.927Z,46.08
2019-01-31T08:15:35.705Z,48.70
2019-01-31T08:17:10.332Z,45.25
2019-01-31T08:18:44.966Z,48.48
2019-01-31T08:20:19.499Z,52.65
2019-01-31T08:21:54.162Z,49.48
2019-01-31T08:23:28.681Z,46.48
2019-01-31T08:25:03.132Z,46.60
2019-01-31T08:26:37.486Z,46.75
2019-01-31T08:28:11.958Z,50.12
2019-01-31T08:29:46.311Z,45.90
2019-01-31T08:31:21.015Z,47.98
2019-01-31T08:32:55.907Z,47.15
2019-01-31T08:34:30.295Z,46.13
2019-01-31T08:36:04.969Z,48.48
2019-01-31T08:37:39.657Z,47.53
2019-01-31T08:39:14.282Z,50.48
2019-01-31T08:40:48.757Z,49.98
2019-01-31T08:42:23.197Z,44.65
2019-01-31T08:43:57.671Z,45.85
2019-01-31T08:45:32.051Z,46.63
2019-01-31T08:47:06.607Z,44.88
2019-01-31T08:48:40.973Z,48.38
2019-01-31T08:50:20.989Z,48.08
2019-01-31T08:51:55.711Z,49.53
2019-01-31T08:53:30.143Z,51.95
2019-01-31T08:55:04.861Z,48.17
2019-01-31T08:56:39.412Z,46.68
2019-01-31T08:58:14.303Z,47.65
2019-01-31T08:59:48.974Z,51.53
2019-01-31T09:01:23.479Z,47.58
2019-01-31T09:02:58.460Z,44.33
2019-01-31T09:04:33.293Z,50.05
2019-01-31T09:06:08.303Z,44.03
2019-01-31T09:07:43.233Z,46.55
2019-01-31T09:09:18.387Z,48.17
2019-01-31T09:10:53.692Z,46.70
2019-01-31T09:12:28.846Z,46.23
2019-01-31T09:14:04.125Z,46.10
2019-01-31T09:15:39.009Z,47.67
2019-01-31T09:17:14.087Z,47.65
2019-01-31T09:18:49.076Z,46.18
2019-01-31T09:20:28.789Z,45.75
2019-01-31T09:22:38.178Z,44.13
2019-01-31T09:24:58.465Z,43.95
2019-01-31T09:27:33.040Z,43.50
2019-01-31T09:30:20.170Z,45.95
2019-01-31T09:32:59.486Z,38.17
2019-01-31T09:35:20.659Z,37.90
2019-01-31T09:37:53.547Z,44.45
2019-01-31T09:40:18.255Z,40.10
2019-01-31T09:42:10.451Z,40.52
2019-01-31T09:44:13.168Z,38.05
2019-01-31T09:46:35.430Z,38.40
2019-01-31T09:48:41.636Z,38.42
2019-01-31T09:50:37.450Z,39.08
2019-01-31T09:52:50.638Z,39.78
2019-01-31T09:54:43.195Z,36.90
2019-01-31T09:56:56.026Z,32.35
2019-01-31T09:58:45.080Z,39.08
2019-01-31T10:01:12.495Z,39.60
2019-01-31T10:03:34.884Z,40.38
2019-01-31T10:05:41.122Z,34.15
2019-01-31T10:07:31.887Z,37.78
2019-01-31T10:09:20.835Z,37.33
2019-01-31T10:11:35.856Z,36.08
2019-01-31T10:13:45.387Z,34.43
2019-01-31T10:15:47.955Z,37.93
2019-01-31T10:17:59.591Z,38.65
2019-01-31T10:20:21.172Z,37.15
2019-01-31T10:22:26.256Z,36.05
2019-01-31T10:25:35.797Z,37.55
2019-01-31T10:27:51.050Z,39.00
2019-01-31T10:29:41.828Z,35.10
2019-01-31T10:31:38.787Z,40.63
2019-01-31T10:33:35.805Z,38.55
2019-01-31T10:35:24.170Z,39.45
2019-01-31T10:37:39.894Z,39.58
2019-01-31T10:40:09.038Z,36.33
2019-01-31T10:42:09.651Z,35.60
2019-01-31T10:44:37.969Z,32.13
2019-01-31T10:46:37.390Z,35.50
2019-01-31T10:49:23.890Z,33.67
2019-01-31T10:52:03.889Z,33.55
2019-01-31T10:54:37.824Z,28.27
2019-01-31T10:56:52.480Z,33.95
2019-01-31T10:59:21.745Z,31.50
2019-01-31T11:01:54.235Z,30.68
2019-01-31T11:04:27.172Z,32.63
2019-01-31T11:07:10.035Z,33.70
2019-01-31T11:09:54.179Z,27.98
2019-01-31T11:12:09.707Z,27.42
2019-01-31T11:14:18.269Z,29.75
2019-01-31T11:16:27.678Z,28.20
2019-01-31T11:18:45.347Z,28.25
2019-01-31T11:21:01.171Z,28.32
2019-01-31T11:23:09.886Z,24.92
2019-01-31T11:26:02.878Z,25.20
2019-01-31T11:28:47.613Z,26.23
2019-01-31T11:30:45.486Z,28.38
2019-01-31T11:33:09.924Z,28.85
2019-01-31T11:35:42.983Z,28.40
2019-01-31T11:38:21.352Z,25.75
2019-01-31T11:40:44.016Z,28.30
2019-01-31T11:43:16.040Z,24.80
2019-01-31T11:45:39.508Z,20.95
2019-01-31T11:48:08.371Z,23.47
2019-01-31T11:50:20.629Z,23.90
2019-01-31T11:52:50.938Z,27.77
2019-01-31T11:54:55.390Z,23.47
2019-01-31T11:57:31.047Z,24.93
2019-01-31T11:59:08.227Z,24.17
2019-01-31T12:00:43.262Z,22.95
2019-01-31T12:02:18.154Z,23.20
2019-01-31T12:04:05.246Z,26.50
2019-01-31T12:05:40.360Z,25.62
2019-01-31T12:07:15.225Z,24.07
2019-01-31T12:08:50.367Z,27.00
2019-01-31T12:10:25.496Z,23.95
2019-01-31T12:12:00.530Z,27.35
2019-01-31T12:13:35.883Z,26.65
2019-01-31T12:15:11.180Z,27.67
2019-01-31T12:16:46.024Z,25.17
2019-01-31T12:18:20.889Z,26.90
2019-01-31T12:21:43.424Z,25.33
2019-01-31T12:23:18.354Z,24.43
2019-01-31T12:24:53.465Z,24.73
2019-01-31T12:26:28.530Z,27.33
2019-01-31T12:28:03.645Z,24.30
2019-01-31T12:29:38.755Z,23.83
2019-01-31T12:31:13.860Z,21.53
2019-01-31T12:32:48.915Z,21.93
2019-01-31T12:34:23.798Z,24.23
2019-01-31T12:35:58.735Z,21.97
2019-01-31T12:37:33.533Z,22.03
2019-01-31T12:39:11.326Z,22.13
2019-01-31T12:40:46.099Z,20.60
2019-01-31T12:42:20.893Z,23.20
2019-01-31T12:43:55.659Z,22.07
2019-01-31T12:45:30.537Z,19.63
2019-01-31T12:47:05.618Z,20.03
2019-01-31T12:48:40.389Z,18.97
2019-01-31T12:50:19.893Z,17.57
2019-01-31T12:51:55.454Z,18.43
2019-01-31T12:53:30.713Z,19.87
2019-01-31T12:55:06.532Z,16.77
2019-01-31T12:56:41.312Z,16.87
2019-01-31T12:58:16.099Z,17.55
2019-01-31T12:59:51.149Z,19.07
2019-01-31T13:01:26.017Z,16.40
2019-01-31T13:03:01.119Z,18.62
2019-01-31T13:04:35.898Z,18.05
2019-01-31T13:06:10.693Z,20.43
2019-01-31T13:07:46.124Z,17.60
2019-01-31T13:09:21.229Z,17.05
2019-01-31T13:10:56.017Z,20.65
2019-01-31T13:12:30.962Z,21.42
2019-01-31T13:14:05.926Z,18.17
2019-01-31T13:15:41.042Z,20.88
2019-01-31T13:17:16.645Z,15.08
2019-01-31T13:18:51.430Z,16.32
2019-01-31T13:20:27.119Z,17.52
2019-01-31T13:22:01.909Z,18.73
2019-01-31T13:23:37.016Z,17.07
2019-01-31T13:25:12.425Z,17.80
2019-01-31T13:26:47.276Z,17.37
2019-01-31T13:28:22.342Z,18.15
2019-01-31T13:29:57.375Z,17.73
2019-01-31T13:31:32.412Z,16.85
2019-01-31T13:33:07.550Z,16.70
2019-01-31T13:34:42.517Z,19.40
2019-01-31T13:36:17.800Z,15.78
2019-01-31T13:37:52.731Z,16.12
2019-01-31T13:39:27.763Z,15.63
2019-01-31T13:41:02.565Z,13.78
2019-01-31T13:42:37.709Z,14.93
2019-01-31T13:44:13.022Z,12.82
2019-01-31T13:45:48.025Z,13.58
2019-01-31T13:47:23.212Z,15.63
2019-01-31T13:48:58.316Z,12.88
2019-01-31T13:50:33.301Z,13.22
2019-01-31T13:52:08.394Z,14.38
2019-01-31T13:53:43.221Z,13.70
2019-01-31T13:55:28.105Z,15.15
2019-01-31T13:57:05.551Z,15.03
2019-01-31T13:58:40.580Z,15.25
2019-01-31T14:00:17.739Z,12.13
2019-01-31T14:01:52.531Z,12.75
2019-01-31T14:03:27.577Z,14.53
2019-01-31T14:05:02.845Z,12.85
2019-01-31T14:06:37.669Z,13.15
2019-01-31T14:08:12.505Z,14.58
2019-01-31T14:09:47.274Z,16.10
2019-01-31T14:11:22.376Z,12.43
2019-01-31T14:12:57.403Z,14.98
2019-01-31T14:14:32.180Z,15.30
2019-01-31T14:16:07.229Z,13.58
2019-01-31T14:17:42.001Z,15.48
2019-01-31T14:19:16.876Z,16.73
2019-01-31T14:20:51.664Z,16.75
2019-01-31T14:22:26.438Z,23.40
2019-01-31T14:24:38.478Z,19.35
2019-01-31T14:26:15.743Z,22.80
2019-01-31T14:27:50.370Z,24.05
2019-01-31T14:29:25.081Z,26.87
2019-01-31T14:31:00.218Z,26.85
2019-01-31T14:32:35.224Z,28.83
2019-01-31T14:34:10.310Z,32.23
2019-01-31T14:35:45.559Z,31.00
2019-01-31T14:37:20.308Z,32.35
2019-01-31T14:38:55.562Z,33.65
2019-01-31T14:40:30.481Z,35.38
2019-01-31T14:42:05.357Z,30.65
2019-01-31T14:43:40.385Z,36.08
2019-01-31T14:45:17.325Z,34.92
2019-01-31T14:46:52.382Z,33.98
2019-01-31T14:48:27.180Z,31.82
2019-01-31T14:50:01.712Z,33.55
2019-01-31T14:51:36.617Z,34.10
2019-01-31T14:53:11.010Z,32.55
2019-01-31T14:54:45.463Z,33.78
2019-01-31T14:56:20.128Z,35.33
2019-01-31T14:57:54.977Z,32.80
2019-01-31T14:59:31.079Z,30.55
2019-01-31T15:01:22.295Z,33.73
2019-01-31T15:02:56.676Z,31.70
2019-01-31T15:04:31.587Z,34.38
2019-01-31T15:06:08.548Z,32.10
2019-01-31T15:07:43.090Z,32.38
2019-01-31T15:09:17.555Z,31.52
2019-01-31T15:10:52.364Z,37.30
2019-01-31T15:12:27.148Z,32.10
2019-01-31T15:14:01.921Z,30.23
2019-01-31T15:15:36.729Z,29.80
2019-01-31T15:17:11.124Z,33.53
2019-01-31T15:18:45.487Z,30.75
2019-01-31T15:20:34.290Z,32.30
2019-01-31T15:21:59.366Z,30.43
2019-01-31T15:23:33.974Z,31.80
2019-01-31T15:25:08.794Z,29.75
2019-01-31T15:26:43.428Z,28.25
2019-01-31T15:28:18.167Z,29.98
2019-01-31T15:29:52.938Z,31.35
2019-01-31T15:31:27.992Z,27.40
2019-01-31T15:33:05.807Z,31.55
2019-01-31T15:34:40.664Z,28.60
2019-01-31T15:36:15.477Z,27.67
2019-01-31T15:37:50.583Z,27.98
2019-01-31T15:39:31.659Z,30.17
2019-01-31T15:41:24.839Z,29.10
2019-01-31T15:44:48.496Z,25.05
2019-01-31T15:46:23.565Z,24.90
2019-01-31T15:47:58.532Z,25.95
2019-01-31T15:49:33.873Z,23.35
2019-01-31T15:51:08.881Z,21.05
2019-01-31T15:53:14.413Z,21.27
2019-01-31T15:55:12.396Z,23.75
2019-01-31T15:56:48.209Z,21.20
2019-01-31T15:58:24.845Z,26.60
2019-01-31T16:00:32.925Z,24.72
2019-01-31T16:02:09.016Z,24.82
2019-01-31T16:03:44.291Z,24.23
2019-01-31T16:05:19.632Z,22.40
2019-01-31T16:06:54.518Z,24.23
2019-01-31T16:08:29.677Z,22.10
2019-01-31T16:10:05.025Z,27.35
2019-01-31T16:11:40.016Z,23.15
2019-01-31T16:13:15.267Z,22.37
2019-01-31T16:14:54.906Z,22.13
2019-01-31T16:16:26.924Z,22.93
2019-01-31T16:18:02.031Z,21.90
2019-01-31T16:19:45.038Z,24.52
2019-01-31T16:21:19.828Z,27.30
2019-01-31T16:22:55.131Z,25.40
2019-01-31T16:24:30.292Z,26.82
2019-01-31T16:26:05.657Z,28.17
2019-01-31T16:27:40.686Z,31.82
2019-01-31T16:29:18.130Z,28.90
2019-01-31T16:30:52.569Z,32.73
2019-01-31T16:32:27.344Z,30.60
2019-01-31T16:34:02.619Z,28.40
2019-01-31T16:35:39.941Z,27.48
2019-01-31T16:37:15.026Z,29.12
2019-01-31T16:38:50.053Z,25.60
2019-01-31T16:40:25.484Z,30.82
2019-01-31T16:42:00.527Z,27.42
2019-01-31T16:43:35.412Z,28.60
2019-01-31T16:45:12.733Z,27.80
2019-01-31T16:46:47.583Z,23.00
2019-01-31T16:48:22.431Z,31.10
2019-01-31T16:49:57.498Z,23.87
2019-01-31T16:51:32.348Z,30.48
2019-01-31T16:53:09.314Z,32.08
2019-01-31T16:54:44.174Z,26.55
2019-01-31T16:56:19.604Z,25.68
2019-01-31T16:57:55.176Z,28.05
2019-01-31T16:59:30.038Z,28.52
2019-01-31T17:01:05.718Z,32.65
2019-01-31T17:02:40.683Z,30.35
2019-01-31T17:04:15.490Z,30.02
2019-01-31T17:05:50.342Z,26.90
2019-01-31T17:07:25.531Z,28.83
2019-01-31T17:09:00.319Z,30.32
2019-01-31T17:10:35.323Z,27.22
2019-01-31T17:12:10.905Z,28.35
2019-01-31T17:13:45.688Z,30.10
2019-01-31T17:15:21.775Z,29.98
2019-01-31T17:16:56.627Z,26.05
2019-01-31T17:18:31.420Z,26.75
2019-01-31T17:20:11.483Z,29.60
2019-01-31T17:21:46.543Z,26.93
2019-01-31T17:23:21.346Z,26.93
2019-01-31T17:24:56.234Z,30.82
2019-01-31T17:26:31.029Z,29.65
2019-01-31T17:28:06.457Z,28.47
2019-01-31T17:29:41.770Z,32.00
2019-01-31T17:31:16.563Z,32.23
2019-01-31T17:32:52.188Z,30.43
2019-01-31T17:34:27.488Z,28.32
2019-01-31T17:36:02.753Z,33.85
2019-01-31T17:37:37.934Z,33.53
2019-01-31T17:39:13.023Z,34.85
2019-01-31T17:40:48.072Z,35.90
2019-01-31T17:42:22.884Z,33.00
2019-01-31T17:43:57.686Z,30.12
2019-01-31T17:45:32.715Z,35.15
2019-01-31T17:47:07.503Z,30.60
2019-01-31T17:48:42.545Z,32.95
2019-01-31T17:50:17.759Z,32.75
2019-01-31T17:51:52.627Z,32.67
2019-01-31T17:53:27.532Z,32.13
2019-01-31T17:55:02.339Z,35.80
2019-01-31T17:56:37.153Z,34.88
2019-01-31T17:58:12.064Z,37.67
2019-01-31T17:59:46.875Z,34.53
2019-01-31T18:01:21.920Z,36.23
2019-01-31T18:02:57.414Z,37.05
2019-01-31T18:04:32.307Z,35.55
2019-01-31T18:06:07.265Z,33.98
2019-01-31T18:07:42.444Z,33.10
2019-01-31T18:09:17.250Z,35.68
2019-01-31T18:10:52.400Z,37.63
2019-01-31T18:12:27.472Z,38.70
2019-01-31T18:14:02.507Z,36.28
2019-01-31T18:15:42.194Z,41.23
2019-01-31T18:17:14.160Z,35.63
2019-01-31T18:18:48.950Z,39.48
2019-01-31T18:20:24.520Z,36.23
2019-01-31T18:21:59.337Z,37.73
2019-01-31T18:23:34.175Z,42.78
2019-01-31T18:25:10.114Z,40.80
2019-01-31T18:26:44.926Z,40.65
2019-01-31T18:28:19.964Z,38.53
2019-01-31T18:29:55.360Z,39.98
2019-01-31T18:31:30.412Z,42.00
2019-01-31T18:33:06.046Z,38.23
2019-01-31T18:34:40.843Z,41.77
2019-01-31T18:36:15.638Z,42.35
2019-01-31T18:37:50.843Z,41.83
2019-01-31T18:39:25.888Z,46.28
2019-01-31T18:41:00.929Z,41.15
2019-01-31T18:42:35.718Z,41.15
2019-01-31T18:44:11.201Z,44.23
2019-01-31T18:45:52.932Z,46.53
2019-01-31T18:47:22.928Z,47.98
2019-01-31T18:48:57.754Z,47.35
2019-01-31T18:50:36.016Z,48.38
2019-01-31T18:52:11.391Z,45.12
2019-01-31T18:53:46.454Z,45.38
2019-01-31T18:55:21.477Z,52.13
2019-01-31T18:56:56.283Z,48.33
2019-01-31T18:58:31.087Z,50.00
2019-01-31T19:00:35.804Z,45.05
2019-01-31T19:02:10.769Z,48.55
2019-01-31T19:03:45.563Z,48.85
2019-01-31T19:05:20.497Z,48.42
2019-01-31T19:06:55.374Z,49.38
2019-01-31T19:08:30.183Z,51.05
2019-01-31T19:10:05.793Z,51.05
2019-01-31T19:11:40.581Z,54.35
2019-01-31T19:13:15.570Z,54.33
2019-01-31T19:14:50.626Z,54.88
2019-01-31T19:16:25.669Z,49.93
2019-01-31T19:18:05.939Z,49.10
2019-01-31T19:19:39.357Z,56.28
2019-01-31T19:21:14.563Z,49.33
2019-01-31T19:22:49.835Z,57.10
2019-01-31T19:24:24.628Z,50.80
2019-01-31T19:25:59.726Z,56.53
2019-01-31T19:27:34.506Z,55.50
2019-01-31T19:29:09.347Z,57.75
2019-01-31T19:30:44.319Z,52.48
2019-01-31T19:32:19.392Z,57.55
2019-01-31T19:33:54.196Z,54.85
2019-01-31T19:35:29.163Z,53.68
2019-01-31T19:37:04.118Z,54.20
2019-01-31T19:38:38.894Z,50.90
2019-01-31T19:40:25.702Z,56.60
2019-01-31T19:42:00.556Z,55.43
2019-01-31T19:43:35.361Z,58.30
2019-01-31T19:45:17.839Z,52.58
2019-01-31T19:46:52.913Z,55.17
2019-01-31T19:48:27.737Z,59.70
2019-01-31T19:50:02.569Z,59.67
2019-01-31T19:51:37.611Z,55.20
2019-01-31T19:53:12.919Z,55.95
2019-01-31T19:54:47.719Z,57.33
2019-01-31T19:56:22.809Z,60.10
2019-01-31T19:57:57.955Z,56.37
2019-01-31T19:59:33.516Z,53.02
2019-01-31T20:01:08.558Z,55.65
2019-01-31T20:02:43.496Z,54.95
2019-01-31T20:04:18.425Z,53.52
2019-01-31T20:05:53.497Z,54.88
2019-01-31T20:07:28.537Z,53.05
2019-01-31T20:09:05.357Z,55.33
2019-01-31T20:10:40.477Z,51.70
2019-01-31T20:12:15.546Z,52.65
2019-01-31T20:13:50.785Z,47.85
2019-01-31T20:15:26.481Z,51.70
2019-01-31T20:17:01.459Z,50.38
2019-01-31T20:18:36.751Z,52.73
2019-01-31T20:20:17.435Z,54.30
2019-01-31T20:21:52.311Z,53.30
2019-01-31T20:23:27.819Z,58.15
2019-01-31T20:25:02.848Z,56.13
2019-01-31T20:26:37.814Z,62.67
2019-01-31T20:28:12.763Z,57.73
2019-01-31T20:29:47.647Z,58.50
2019-01-31T20:31:23.129Z,57.73
2019-01-31T20:32:59.606Z,62.20
2019-01-31T20:34:34.428Z,59.55
2019-01-31T20:36:09.378Z,57.38
2019-01-31T20:37:44.437Z,65.67
2019-01-31T20:39:19.611Z,58.80
2019-01-31T20:40:54.653Z,60.03
2019-01-31T20:42:29.452Z,57.43
2019-01-31T20:44:05.180Z,62.88
2019-01-31T20:45:40.443Z,54.45
2019-01-31T20:47:15.917Z,57.95
2019-01-31T20:48:51.223Z,55.55
2019-01-31T20:50:29.382Z,53.28
2019-01-31T20:52:04.313Z,53.83
2019-01-31T20:53:39.161Z,56.80
2019-01-31T20:55:15.193Z,54.30
2019-01-31T20:56:51.200Z,60.58
2019-01-31T20:58:26.282Z,56.00
2019-01-31T21:00:01.102Z,62.33
2019-01-31T21:01:35.958Z,56.83
2019-01-31T21:03:11.230Z,54.73
2019-01-31T21:04:46.069Z,56.95
2019-01-31T21:06:20.901Z,55.03
2019-01-31T21:07:55.797Z,60.63
2019-01-31T21:09:30.653Z,62.08
2019-01-31T21:11:07.655Z,57.00
2019-01-31T21:12:42.610Z,57.38
2019-01-31T21:14:17.568Z,60.28
2019-01-31T21:15:53.017Z,54.00
2019-01-31T21:17:28.872Z,57.33
2019-01-31T21:19:04.095Z,53.13
2019-01-31T21:20:39.108Z,56.73
2019-01-31T21:22:14.226Z,54.40
2019-01-31T21:23:49.535Z,59.65
2019-01-31T21:25:24.289Z,56.68
2019-01-31T21:26:59.095Z,56.15
2019-01-31T21:28:34.019Z,54.83
2019-01-31T21:30:17.115Z,52.08
2019-01-31T21:31:51.932Z,53.68
2019-01-31T21:33:27.138Z,48.60
2019-01-31T21:35:02.007Z,52.15
2019-01-31T21:36:37.105Z,51.65
2019-01-31T21:38:12.356Z,51.58
2019-01-31T21:39:47.222Z,52.20
2019-01-31T21:41:22.264Z,57.70
2019-01-31T21:42:57.213Z,55.83
2019-01-31T21:44:32.293Z,53.55
2019-01-31T21:46:07.085Z,54.63
2019-01-31T21:47:42.152Z,51.30
2019-01-31T21:49:17.527Z,53.60
2019-01-31T21:50:52.342Z,51.13
2019-01-31T21:52:27.586Z,50.63
2019-01-31T21:54:02.405Z,57.45
2019-01-31T21:55:37.390Z,53.25
2019-01-31T21:57:12.511Z,53.05
2019-01-31T21:58:47.315Z,51.60
2019-01-31T22:00:25.740Z,52.70
2019-01-31T22:02:00.538Z,53.38
2019-01-31T22:03:35.422Z,51.28
2019-01-31T22:05:11.667Z,51.48
2019-01-31T22:06:46.822Z,49.38
2019-01-31T22:08:21.615Z,51.73
2019-01-31T22:09:56.691Z,51.53
2019-01-31T22:11:31.733Z,52.40
2019-01-31T22:13:07.572Z,50.67
2019-01-31T22:14:42.359Z,50.10
2019-01-31T22:16:17.446Z,50.80
2019-01-31T22:17:52.624Z,50.43
2019-01-31T22:19:27.672Z,51.28
2019-01-31T22:21:02.543Z,49.77
2019-01-31T22:22:37.492Z,50.15
2019-01-31T22:24:12.567Z,54.75
2019-01-31T22:25:47.368Z,46.85
2019-01-31T22:27:22.158Z,52.08
2019-01-31T22:28:57.002Z,50.90
2019-01-31T22:30:35.236Z,48.05
2019-01-31T22:32:10.549Z,44.75
2019-01-31T22:33:45.583Z,46.15
2019-01-31T22:35:20.549Z,47.83